createdAt,value
2022-12-11T00:58:57.587Z,98661.06
2022-12-11T01:01:26.104Z,98489.66
2022-12-11T01:03:54.202Z,98661.69
2022-12-11T01:06:24.407Z,98667.63
2022-12-11T01:09:10.759Z,98682.53
2022-12-11T01:11:38.681Z,98677.91
2022-12-11T01:14:05.996Z,98662.16
2022-12-11T01:16:33.397Z,98662.78
2022-12-11T01:19:01.359Z,98672.41
2022-12-11T01:21:29.227Z,98647.28
2022-12-11T01:23:56.616Z,98652.31
2022-12-11T01:26:24.482Z,98667.94
2022-12-11T01:28:52.239Z,98655.69
2022-12-11T01:31:20.360Z,98652.22
2022-12-11T01:33:48.523Z,98637.69
2022-12-11T01:36:19.403Z,98653.03
2022-12-11T01:38:48.368Z,98653.81
2022-12-11T01:41:18.433Z,98655.75
2022-12-11T01:44:00.538Z,98663.84
2022-12-11T01:46:29.045Z,98673.50
2022-12-11T01:48:57.584Z,98563.59
2022-12-11T01:51:27.204Z,98667.19
2022-12-11T01:54:01.448Z,98660.38
2022-12-11T01:56:32.903Z,98659.56
2022-12-11T01:59:07.636Z,98659.63
2022-12-11T02:01:43.525Z,98662.31
2022-12-11T02:04:16.370Z,98666.75
2022-12-11T02:06:47.296Z,98675.56
2022-12-11T02:09:18.523Z,98679.03
2022-12-11T02:11:49.215Z,98669.41
2022-12-11T02:14:45.396Z,98678.22
2022-12-11T02:17:51.390Z,98677.22
2022-12-11T02:20:30.026Z,98689.16
2022-12-11T02:23:12.864Z,98679.53
2022-12-11T02:26:21.792Z,98697.88
2022-12-11T02:28:58.165Z,98702.94
2022-12-11T02:31:33.083Z,98707.50
2022-12-11T02:34:08.796Z,98709.84
2022-12-11T02:36:42.023Z,98637.38
2022-12-11T02:39:13.201Z,98713.69
2022-12-11T02:41:49.447Z,98718.91
2022-12-11T02:44:21.055Z,98711.19
2022-12-11T02:46:48.379Z,98714.66
2022-12-11T02:49:17.596Z,98721.75
2022-12-11T02:51:45.743Z,98713.69
2022-12-11T02:54:18.312Z,98694.53
2022-12-11T02:56:52.818Z,98717.06
2022-12-11T02:59:27.467Z,98717.84
2022-12-11T03:01:54.832Z,98736.06
2022-12-11T03:04:25.132Z,98731.69
2022-12-11T03:06:56.329Z,98718.00
2022-12-11T03:09:24.104Z,98738.50
2022-12-11T03:11:52.738Z,98741.19
2022-12-11T03:14:20.679Z,98739.66
2022-12-11T03:17:14.496Z,98739.75
2022-12-11T03:19:58.821Z,98743.91
2022-12-11T03:22:36.232Z,98759.69
2022-12-11T03:25:10.578Z,98751.72
2022-12-11T03:27:44.074Z,98757.84
2022-12-11T03:30:20.293Z,98654.25
2022-12-11T03:32:55.963Z,98759.84
2022-12-11T03:35:33.377Z,98760.91
2022-12-11T03:38:06.488Z,98767.06
2022-12-11T03:40:36.603Z,98761.94
2022-12-11T03:43:05.431Z,98769.59
2022-12-11T03:45:34.800Z,98771.13
2022-12-11T03:48:03.443Z,98764.13
2022-12-11T03:50:33.065Z,98778.69
2022-12-11T03:53:02.194Z,98764.75
2022-12-11T03:55:32.904Z,98786.19
2022-12-11T03:58:00.483Z,98785.25
2022-12-11T04:00:28.198Z,98787.78
2022-12-11T04:03:14.615Z,98793.78
2022-12-11T04:05:50.865Z,98793.03
2022-12-11T04:08:23.855Z,98797.44
2022-12-11T04:11:12.345Z,98815.63
2022-12-11T04:13:41.255Z,98814.72
2022-12-11T04:16:09.533Z,98721.47
2022-12-11T04:18:55.702Z,98805.53
2022-12-11T04:21:41.745Z,98804.94
2022-12-11T04:24:18.574Z,98806.53
2022-12-11T04:26:47.803Z,98797.09
2022-12-11T04:29:15.585Z,98702.09
2022-12-11T04:31:43.393Z,98815.22
2022-12-11T04:34:10.928Z,98796.44
2022-12-11T04:36:38.547Z,98790.66
2022-12-11T04:39:06.557Z,98789.75
2022-12-11T04:41:34.813Z,98813.81
2022-12-11T04:44:02.168Z,98831.22
2022-12-11T04:46:29.782Z,98820.94
2022-12-11T04:48:58.157Z,98820.94
2022-12-11T04:51:26.291Z,98813.13
2022-12-11T04:53:54.557Z,98750.84
2022-12-11T04:56:22.254Z,98730.38
2022-12-11T04:58:49.854Z,98809.19
2022-12-11T05:01:21.130Z,98613.91
2022-12-11T05:03:49.013Z,98809.53
2022-12-11T05:06:16.690Z,98716.16
2022-12-11T05:08:45.869Z,98796.66
2022-12-11T05:11:15.563Z,98753.06
2022-12-11T05:13:42.990Z,98820.25
2022-12-11T05:16:13.383Z,98820.25
2022-12-11T05:18:41.015Z,98835.66
2022-12-11T05:21:11.532Z,98832.97
2022-12-11T05:23:39.469Z,98794.31
2022-12-11T05:26:14.591Z,98840.81
2022-12-11T05:28:43.081Z,98784.25
2022-12-11T05:31:14.747Z,98846.91
2022-12-11T05:33:42.516Z,98858.19
2022-12-11T05:36:16.131Z,98859.88
2022-12-11T05:38:43.998Z,98856.22
2022-12-11T05:41:13.785Z,98870.84
2022-12-11T05:43:41.401Z,98797.94
2022-12-11T05:46:10.578Z,98909.72
2022-12-11T05:48:38.555Z,98889.69
2022-12-11T05:51:08.662Z,98897.41
2022-12-11T05:53:38.023Z,98908.63
2022-12-11T05:56:12.623Z,98914.03
2022-12-11T05:58:41.207Z,98932.28
2022-12-11T06:01:11.300Z,98920.09
2022-12-11T06:03:39.294Z,98919.28
2022-12-11T06:06:07.868Z,98934.09
2022-12-11T06:08:36.059Z,98939.38
2022-12-11T06:11:04.559Z,98854.41
2022-12-11T06:13:32.204Z,98949.72
2022-12-11T06:16:04.195Z,98947.19
2022-12-11T06:18:32.396Z,98845.78
2022-12-11T06:21:00.317Z,98955.84
2022-12-11T06:23:27.575Z,98924.13
2022-12-11T06:25:55.290Z,98968.88
2022-12-11T06:28:22.879Z,98958.44
2022-12-11T06:30:50.347Z,98967.91
2022-12-11T06:33:17.817Z,98941.25
2022-12-11T06:35:45.306Z,98964.38
2022-12-11T06:38:12.887Z,98957.41
2022-12-11T06:40:41.143Z,98952.94
2022-12-11T06:43:08.423Z,98955.50
2022-12-11T06:45:38.270Z,98960.75
2022-12-11T06:48:06.432Z,98963.47
2022-12-11T06:50:33.819Z,98872.59
2022-12-11T06:53:01.443Z,98966.25
2022-12-11T06:55:29.573Z,98963.66
2022-12-11T06:57:56.866Z,98955.06
2022-12-11T07:00:24.235Z,98965.47
2022-12-11T07:02:52.057Z,98967.19
2022-12-11T07:05:19.919Z,98975.06
2022-12-11T07:07:47.384Z,98977.53
2022-12-11T07:10:15.276Z,98981.91
2022-12-11T07:12:42.903Z,98928.66
2022-12-11T07:15:10.794Z,98864.25
2022-12-11T07:17:38.586Z,98901.97
2022-12-11T07:20:06.774Z,98930.50
2022-12-11T07:22:34.739Z,98992.25
2022-12-11T07:25:02.488Z,98984.56
2022-12-11T07:27:30.854Z,98981.25
2022-12-11T07:29:58.161Z,98994.25
2022-12-11T07:32:26.052Z,98979.72
2022-12-11T07:34:53.655Z,98998.53
2022-12-11T07:37:21.332Z,99005.41
2022-12-11T07:39:49.514Z,99014.78
2022-12-11T07:42:16.881Z,99001.88
2022-12-11T07:44:44.441Z,98996.69
2022-12-11T07:47:12.010Z,99003.75
2022-12-11T07:49:39.624Z,99002.97
2022-12-11T07:52:07.210Z,98979.66
2022-12-11T07:54:34.743Z,99001.34
2022-12-11T07:57:02.787Z,99004.66
2022-12-11T07:59:30.224Z,99009.09
2022-12-11T08:01:57.838Z,99019.22
2022-12-11T08:04:25.715Z,98905.66
2022-12-11T08:06:53.057Z,98921.09
2022-12-11T08:09:22.872Z,99023.06
2022-12-11T08:11:51.389Z,99022.22
2022-12-11T08:14:19.920Z,99021.31
2022-12-11T08:16:47.615Z,99030.13
2022-12-11T08:19:15.515Z,99032.72
2022-12-11T08:21:43.597Z,99039.63
2022-12-11T08:24:11.510Z,99033.50
2022-12-11T08:26:39.831Z,99035.22
2022-12-11T08:29:07.345Z,99037.88
2022-12-11T08:31:35.675Z,98972.66
2022-12-11T08:34:03.568Z,99044.78
2022-12-11T08:36:31.247Z,99051.81
2022-12-11T08:38:59.450Z,99060.38
2022-12-11T08:41:29.446Z,99068.16
2022-12-11T08:43:58.823Z,98994.44
2022-12-11T08:46:29.216Z,99072.59
2022-12-11T08:48:58.016Z,99064.63
2022-12-11T08:51:27.632Z,98954.47
2022-12-11T08:54:00.182Z,99069.69
2022-12-11T08:56:28.836Z,99067.19
2022-12-11T08:58:56.843Z,98997.69
2022-12-11T09:01:26.853Z,99066.59
2022-12-11T09:03:55.814Z,99070.22
2022-12-11T09:06:25.512Z,99068.59
2022-12-11T09:08:54.065Z,99051.44
2022-12-11T09:11:24.538Z,99071.97
2022-12-11T09:13:51.898Z,99079.84
2022-12-11T09:16:21.715Z,99077.25
2022-12-11T09:18:51.778Z,99080.66
2022-12-11T09:21:21.302Z,99078.84
2022-12-11T09:23:49.056Z,99083.25
2022-12-11T09:26:18.678Z,99080.75
2022-12-11T09:28:47.438Z,99080.75
2022-12-11T09:31:21.134Z,99073.78
2022-12-11T09:33:49.913Z,99082.34
2022-12-11T09:36:17.136Z,99103.88
2022-12-11T09:38:45.420Z,99105.56
2022-12-11T09:41:44.368Z,99118.72
2022-12-11T09:44:11.832Z,99120.63
2022-12-11T09:46:40.447Z,99121.59
2022-12-11T09:49:29.139Z,99103.59
2022-12-11T09:52:06.429Z,99118.78
2022-12-11T09:54:34.964Z,99111.13
2022-12-11T09:57:32.233Z,99130.13
2022-12-11T10:00:11.697Z,99054.53
2022-12-11T10:02:39.198Z,99142.34
2022-12-11T10:05:26.024Z,99121.66
2022-12-11T10:08:06.339Z,99119.06
2022-12-11T10:10:45.767Z,99120.91
2022-12-11T10:13:49.074Z,99120.91
2022-12-11T10:16:44.188Z,99117.34
2022-12-11T10:19:22.242Z,99107.09
2022-12-11T10:21:52.107Z,99116.59
2022-12-11T10:27:36.252Z,99095.94
2022-12-11T10:30:16.077Z,99101.03
2022-12-11T10:32:51.332Z,99001.16
2022-12-11T10:35:43.750Z,99118.47
2022-12-11T10:38:17.256Z,99121.88
2022-12-11T10:40:56.915Z,99109.81
2022-12-11T10:43:37.919Z,99117.56
2022-12-11T10:46:07.131Z,99119.25
2022-12-11T10:48:34.944Z,99120.91
2022-12-11T10:51:06.135Z,99105.22
2022-12-11T10:53:35.136Z,99101.63
2022-12-11T10:56:03.002Z,99111.06
2022-12-11T10:58:34.881Z,99110.41
2022-12-11T11:01:11.121Z,99026.25
2022-12-11T11:04:04.695Z,99098.53
2022-12-11T11:06:33.040Z,99042.63
2022-12-11T11:09:01.907Z,99099.28
2022-12-11T11:11:37.325Z,99086.44
2022-12-11T11:14:17.793Z,99078.72
2022-12-11T11:16:48.465Z,99087.31
2022-12-11T11:19:36.615Z,99072.00
2022-12-11T11:22:22.458Z,99082.50
2022-12-11T11:24:57.069Z,99084.13
2022-12-11T11:27:46.832Z,99089.97
2022-12-11T11:30:36.183Z,99072.50
2022-12-11T11:33:24.378Z,99075.25
2022-12-11T11:35:57.582Z,99069.25
2022-12-11T11:38:40.128Z,99077.16
2022-12-11T11:41:39.719Z,99060.78
2022-12-11T11:44:13.776Z,99077.25
2022-12-11T11:46:48.860Z,99088.56
2022-12-11T11:49:36.375Z,99090.44
2022-12-11T11:52:21.885Z,99011.13
2022-12-11T11:55:10.601Z,99087.72
2022-12-11T11:57:55.552Z,99067.25
2022-12-11T12:00:33.315Z,99100.16
2022-12-11T12:03:10.568Z,99090.81
2022-12-11T12:06:03.005Z,99099.47
2022-12-11T12:08:36.442Z,99103.81
2022-12-11T12:11:26.272Z,99100.41
2022-12-11T12:14:51.693Z,99109.06
2022-12-11T12:17:17.462Z,99102.16
2022-12-11T12:19:47.633Z,99114.38
2022-12-11T12:22:28.409Z,99113.50
2022-12-11T12:25:20.718Z,99109.19
2022-12-11T12:28:16.807Z,99128.25
2022-12-11T12:31:10.260Z,99124.03
2022-12-11T12:33:48.791Z,99117.91
2022-12-11T12:36:50.269Z,99104.16
2022-12-11T12:39:45.033Z,99106.75
2022-12-11T12:42:32.451Z,99110.22
2022-12-11T12:45:09.823Z,99093.88
2022-12-11T12:47:39.043Z,99102.44
2022-12-11T12:50:14.794Z,99102.44
2022-12-11T12:52:42.748Z,99100.66
2022-12-11T12:55:17.817Z,99106.59
2022-12-11T12:58:05.549Z,99102.31
2022-12-11T13:00:36.692Z,99104.13
2022-12-11T13:03:18.384Z,99100.72
2022-12-11T13:06:06.151Z,99099.94
2022-12-11T13:08:51.887Z,99104.31
2022-12-11T13:11:21.684Z,99104.28
2022-12-11T13:14:02.654Z,99100.81
2022-12-11T13:16:40.408Z,99100.00
2022-12-11T13:19:26.379Z,99093.91
2022-12-11T13:22:15.741Z,99088.59
2022-12-11T13:24:52.347Z,99086.03
2022-12-11T13:27:37.043Z,98998.19
2022-12-11T13:30:22.716Z,99074.75
2022-12-11T13:32:55.511Z,99066.19
2022-12-11T13:35:23.498Z,98878.53
2022-12-11T13:37:54.097Z,99038.63
2022-12-11T13:40:26.884Z,99057.53
2022-12-11T13:43:01.440Z,99059.28
2022-12-11T13:45:37.729Z,99054.97
2022-12-11T13:48:19.286Z,99053.22
2022-12-11T13:50:47.394Z,99048.88
2022-12-11T13:53:17.882Z,99044.59
2022-12-11T13:55:45.576Z,99044.56
2022-12-11T13:58:21.519Z,99042.91
2022-12-11T14:01:07.983Z,99042.06
2022-12-11T14:03:36.713Z,98851.75
2022-12-11T14:06:04.740Z,99031.69
2022-12-11T14:08:36.343Z,99040.31
2022-12-11T14:11:05.381Z,99015.31
2022-12-11T14:13:37.909Z,99018.84
2022-12-11T14:16:07.190Z,98974.91
2022-12-11T14:18:36.920Z,98914.63
2022-12-11T14:21:06.288Z,99007.59
2022-12-11T14:23:36.403Z,99008.41
2022-12-11T14:26:38.900Z,99020.59
2022-12-11T14:29:07.166Z,98963.69
2022-12-11T14:31:38.587Z,98933.59
2022-12-11T14:34:21.098Z,98982.63
2022-12-11T14:36:49.889Z,98964.50
2022-12-11T14:39:24.695Z,99022.97
2022-12-11T14:42:03.175Z,98859.34
2022-12-11T14:44:36.623Z,99020.28
2022-12-11T14:47:11.213Z,98901.34
2022-12-11T14:49:54.353Z,99012.50
2022-12-11T14:52:33.337Z,98935.16
2022-12-11T14:55:08.281Z,99036.81
2022-12-11T14:57:37.320Z,98950.63
2022-12-11T15:00:05.891Z,98833.50
2022-12-11T15:02:36.587Z,98995.19
2022-12-11T15:05:18.307Z,98919.41
2022-12-11T15:07:57.284Z,98976.16
2022-12-11T15:10:54.390Z,98995.22
2022-12-11T15:13:25.262Z,99007.44
2022-12-11T15:15:54.859Z,98960.81
2022-12-11T15:18:23.826Z,98981.44
2022-12-11T15:20:55.141Z,98926.22
2022-12-11T15:23:22.951Z,98945.09
2022-12-11T15:25:56.524Z,98908.97
2022-12-11T15:28:37.909Z,98883.16
2022-12-11T15:31:27.930Z,98913.09
2022-12-11T15:33:55.503Z,98901.00
2022-12-11T15:36:32.171Z,98731.69
2022-12-11T15:38:59.967Z,98886.31
2022-12-11T15:41:28.700Z,98897.53
2022-12-11T15:43:59.224Z,98886.31
2022-12-11T15:46:27.433Z,98912.13
2022-12-11T15:48:56.514Z,98911.28
2022-12-11T15:51:25.535Z,98853.66
2022-12-11T15:53:52.968Z,98911.09
2022-12-11T15:56:20.203Z,98905.13
2022-12-11T15:58:49.329Z,98899.09
2022-12-11T16:01:17.806Z,98903.31
2022-12-11T16:03:45.962Z,98865.44
2022-12-11T16:06:14.350Z,98885.16
2022-12-11T16:08:42.242Z,98867.00
2022-12-11T16:11:13.341Z,98847.13
2022-12-11T16:13:41.013Z,98756.16
2022-12-11T16:16:08.933Z,98776.00
2022-12-11T16:18:36.435Z,98875.41
2022-12-11T16:21:07.350Z,98837.53
2022-12-11T16:23:35.118Z,98861.53
2022-12-11T16:26:09.628Z,98849.34
2022-12-11T16:28:37.275Z,98800.41
2022-12-11T16:31:09.641Z,98780.75
2022-12-11T16:33:37.575Z,98832.22
2022-12-11T16:36:19.096Z,98862.31
2022-12-11T16:38:53.240Z,98853.63
2022-12-11T16:41:23.037Z,98779.66
2022-12-11T16:43:51.041Z,98852.72
2022-12-11T16:46:19.427Z,98847.47
2022-12-11T16:48:47.262Z,98843.97
2022-12-11T16:51:15.222Z,98737.41
2022-12-11T16:53:42.914Z,98821.34
2022-12-11T16:56:10.513Z,98827.34
2022-12-11T16:58:38.195Z,98827.34
2022-12-11T17:01:13.484Z,98828.34
2022-12-11T17:03:42.655Z,98823.03
2022-12-11T17:06:12.106Z,98799.69
2022-12-11T17:08:40.108Z,98796.19
2022-12-11T17:11:13.576Z,98754.19
2022-12-11T17:13:41.267Z,98771.94
2022-12-11T17:16:12.554Z,98680.69
2022-12-11T17:18:40.958Z,98739.84
2022-12-11T17:21:14.358Z,98752.81
2022-12-11T17:23:42.148Z,98732.03
2022-12-11T17:26:10.128Z,98704.44
2022-12-11T17:28:39.007Z,98722.47
2022-12-11T17:31:08.813Z,98723.25
2022-12-11T17:33:39.004Z,98718.88
2022-12-11T17:36:07.443Z,98585.00
2022-12-11T17:38:36.384Z,98674.03
2022-12-11T17:41:12.187Z,98692.78
2022-12-11T17:43:42.559Z,98708.38
2022-12-11T17:46:13.525Z,98703.19
2022-12-11T17:48:40.887Z,98556.53
2022-12-11T17:51:10.457Z,98703.16
2022-12-11T17:53:38.255Z,98706.47
2022-12-11T17:56:08.351Z,98703.03
2022-12-11T17:58:36.424Z,98652.31
2022-12-11T18:01:09.529Z,98717.66
2022-12-11T18:03:38.300Z,98645.69
2022-12-11T18:06:15.224Z,98698.59
2022-12-11T18:08:43.608Z,98578.44
2022-12-11T18:11:18.562Z,98648.53
2022-12-11T18:13:48.161Z,98670.56
2022-12-11T18:16:28.335Z,98673.16
2022-12-11T18:18:56.835Z,98678.63
2022-12-11T18:21:27.314Z,98702.47
2022-12-11T18:23:55.235Z,98703.59
2022-12-11T18:26:23.615Z,98684.59
2022-12-11T18:28:53.922Z,98552.44
2022-12-11T18:31:22.097Z,98674.69
2022-12-11T18:33:50.383Z,98699.81
2022-12-11T18:36:19.578Z,98701.50
2022-12-11T18:38:48.227Z,98699.78
2022-12-11T18:41:17.832Z,98698.13
2022-12-11T18:43:46.077Z,98701.50
2022-12-11T18:46:15.941Z,98698.03
2022-12-11T18:48:45.039Z,98693.63
2022-12-11T18:51:20.340Z,98625.97
2022-12-11T18:53:48.062Z,98697.94
2022-12-11T18:56:18.213Z,98698.81
2022-12-11T18:58:46.789Z,98696.22
2022-12-11T19:01:29.254Z,98669.38
2022-12-11T19:04:04.181Z,98666.72
2022-12-11T19:06:36.139Z,98578.41
2022-12-11T19:09:06.185Z,98655.34
2022-12-11T19:11:35.160Z,98643.09
2022-12-11T19:14:04.871Z,98496.53
2022-12-11T19:16:35.015Z,98632.56
2022-12-11T19:19:06.377Z,98628.09
2022-12-11T19:21:35.976Z,98619.31
2022-12-11T19:24:04.138Z,98624.53
2022-12-11T19:26:32.253Z,98635.00
2022-12-11T19:29:00.489Z,98630.66
2022-12-11T19:31:30.620Z,98626.31
2022-12-11T19:33:58.587Z,98547.72
2022-12-11T19:36:28.514Z,98631.56
2022-12-11T19:39:01.476Z,98640.06
2022-12-11T19:41:30.698Z,98642.69
2022-12-11T19:43:59.607Z,98585.44
2022-12-11T19:46:28.703Z,98630.88
2022-12-11T19:48:57.932Z,98628.09
2022-12-11T19:51:30.367Z,98581.91
2022-12-11T19:53:59.305Z,98605.75
2022-12-11T19:56:27.015Z,98626.31
2022-12-11T19:58:54.384Z,98591.91
2022-12-11T20:01:28.861Z,98611.59
2022-12-11T20:04:01.934Z,98626.31
2022-12-11T20:06:31.797Z,98634.03
2022-12-11T20:08:59.764Z,98621.81
2022-12-11T20:11:27.337Z,98589.91
2022-12-11T20:13:56.027Z,98608.75
2022-12-11T20:16:39.605Z,98565.06
2022-12-11T20:19:11.772Z,98609.47
2022-12-11T20:21:39.638Z,98591.34
2022-12-11T20:24:07.205Z,98584.34
2022-12-11T20:26:36.878Z,98575.72
2022-12-11T20:29:07.456Z,98578.28
2022-12-11T20:31:36.499Z,98506.28
2022-12-11T20:34:04.139Z,98593.78
2022-12-11T20:36:32.549Z,98566.81
2022-12-11T20:39:00.615Z,98566.88
2022-12-11T20:41:28.494Z,98496.69
2022-12-11T20:43:57.087Z,98540.91
2022-12-11T20:46:26.680Z,98532.13
2022-12-11T20:48:58.825Z,98528.84
2022-12-11T20:51:27.147Z,98466.22
2022-12-11T20:53:59.538Z,98534.63
2022-12-11T20:56:30.739Z,98523.34
2022-12-11T20:58:59.494Z,98532.81
2022-12-11T21:01:30.895Z,98435.97
2022-12-11T21:04:00.063Z,98506.78
2022-12-11T21:06:32.081Z,98532.81
2022-12-11T21:09:02.264Z,98530.13
2022-12-11T21:11:29.843Z,98489.56
2022-12-11T21:13:57.350Z,98455.44
2022-12-11T21:16:25.912Z,98511.72
2022-12-11T21:18:55.388Z,98504.94
2022-12-11T21:21:22.693Z,98477.22
2022-12-11T21:23:50.443Z,98515.09
2022-12-11T21:26:18.243Z,98494.31
2022-12-11T21:28:45.744Z,98492.53
2022-12-11T21:31:16.201Z,98399.53
2022-12-11T21:33:43.571Z,98472.50
2022-12-11T21:36:12.709Z,98451.94
2022-12-11T21:38:42.038Z,98479.53
2022-12-11T21:41:13.883Z,98461.28
2022-12-11T21:44:06.832Z,98439.50
2022-12-11T21:46:30.616Z,98378.75
2022-12-11T21:48:58.584Z,98416.91
2022-12-11T21:51:41.511Z,98438.47
2022-12-11T21:54:14.806Z,98290.63
2022-12-11T21:56:43.011Z,98407.28
2022-12-11T21:59:10.356Z,98413.16
2022-12-11T22:01:42.478Z,98417.44
2022-12-11T22:04:10.979Z,98402.72
2022-12-11T22:06:40.065Z,98328.38
2022-12-11T22:09:08.399Z,98304.09
2022-12-11T22:11:36.901Z,98381.03
2022-12-11T22:14:04.605Z,98221.97
2022-12-11T22:16:32.233Z,98374.88
2022-12-11T22:19:00.119Z,98304.78
2022-12-11T22:21:27.776Z,98371.25
2022-12-11T22:23:55.484Z,98343.59
2022-12-11T22:26:26.349Z,98354.72
2022-12-11T22:28:54.282Z,98332.91
2022-12-11T22:31:25.192Z,98300.78
2022-12-11T22:33:54.958Z,98339.75
2022-12-11T22:36:24.368Z,98333.53
2022-12-11T22:38:52.345Z,98269.56
2022-12-11T22:41:31.116Z,98342.91
2022-12-11T22:43:59.482Z,98314.94
2022-12-11T22:46:29.762Z,98308.03
2022-12-11T22:48:58.068Z,98225.16
2022-12-11T22:51:25.954Z,98224.44
2022-12-11T22:53:53.678Z,98288.88
2022-12-11T22:56:21.392Z,98288.00
2022-12-11T22:58:49.181Z,98279.34
2022-12-11T23:01:23.289Z,98265.47
2022-12-11T23:03:51.674Z,98199.69
2022-12-11T23:06:21.563Z,98249.72
2022-12-11T23:08:49.257Z,98253.06
2022-12-11T23:11:25.172Z,98233.00
2022-12-11T23:13:53.064Z,98242.50
2022-12-11T23:16:21.829Z,98237.09
2022-12-11T23:18:49.766Z,98136.06
2022-12-11T23:21:17.626Z,98211.00
2022-12-11T23:23:45.250Z,98215.25
2022-12-11T23:26:15.083Z,98254.25
2022-12-11T23:28:42.946Z,98206.25
2022-12-11T23:31:10.676Z,98230.53
2022-12-11T23:33:38.412Z,98213.13
2022-12-11T23:36:06.661Z,98198.28
2022-12-11T23:38:34.281Z,98198.31
2022-12-11T23:41:03.986Z,98138.16
2022-12-11T23:43:31.705Z,98195.66
2022-12-11T23:45:59.100Z,98039.97
2022-12-11T23:48:26.671Z,98189.38
2022-12-11T23:51:01.603Z,98184.13
2022-12-11T23:53:29.955Z,98191.13
2022-12-11T23:56:02.309Z,98181.53
2022-12-11T23:58:30.306Z,98178.69
